Time;durP1;ratioP1;P1;durP2;ratioP2;P2;SDS_P1;SDS_P2;PMS_P1;PMS_P2;Temp;Humidity;BMP_temperature;BMP_pressure;BME280_temperature;BME280_humidity;BME280_pressure;Samples;Min_cycle;Max_cycle;Signal;HPM_P1;HPM_P2
2022/05/14 00:02:27;;;;;;;6.00;3.23;;;12.10;99.90;;;;;;4907721;29;20272;-75
2022/05/14 00:05:12;;;;;;;9.20;3.50;;;12.10;99.90;;;;;;4912284;29;20229;-75
2022/05/14 00:07:56;;;;;;;8.80;3.93;;;12.10;99.90;;;;;;4909689;29;20222;-75
2022/05/14 00:13:44;;;;;;;10.83;3.40;;;12.10;99.90;;;;;;4923374;29;20218;-75
2022/05/14 00:16:29;;;;;;;9.83;3.60;;;12.00;99.90;;;;;;4904880;29;20198;-75
2022/05/14 00:19:14;;;;;;;7.57;3.50;;;12.00;99.90;;;;;;4913534;29;20722;-74
2022/05/14 00:21:59;;;;;;;13.53;4.07;;;12.00;99.90;;;;;;4913186;29;20272;-74
2022/05/14 00:24:43;;;;;;;8.60;3.77;;;12.00;99.90;;;;;;4899865;29;20253;-76
2022/05/14 00:27:27;;;;;;;9.90;3.47;;;12.00;99.90;;;;;;4902453;29;20212;-75
2022/05/14 00:30:13;;;;;;;12.50;3.50;;;12.00;99.90;;;;;;4913607;29;20250;-75
2022/05/14 00:32:57;;;;;;;9.57;3.87;;;12.00;99.90;;;;;;4911731;29;20210;-75
2022/05/14 00:35:42;;;;;;;7.23;3.67;;;12.00;99.90;;;;;;4905436;29;20199;-74
2022/05/14 00:38:26;;;;;;;6.00;3.50;;;12.00;99.90;;;;;;4897012;29;20502;-74
2022/05/14 00:41:11;;;;;;;9.93;3.93;;;12.00;99.90;;;;;;4896947;29;20223;-75
2022/05/14 00:43:59;;;;;;;8.47;3.73;;;12.00;99.90;;;;;;4910394;29;20250;-74
2022/05/14 00:46:53;;;;;;;10.07;3.77;;;12.10;99.90;;;;;;4898450;29;20199;-74
2022/05/14 00:49:37;;;;;;;10.60;3.90;;;12.10;99.90;;;;;;4914679;29;20190;-74
2022/05/14 00:52:22;;;;;;;6.03;3.20;;;12.10;99.90;;;;;;4897548;29;20287;-74
2022/05/14 00:55:07;;;;;;;11.40;3.83;;;12.20;99.90;;;;;;4909954;29;20275;-74
2022/05/14 00:57:51;;;;;;;8.27;3.50;;;12.20;99.90;;;;;;4918790;29;20206;-76
2022/05/14 01:00:36;;;;;;;7.70;3.13;;;12.20;99.90;;;;;;4910723;29;20290;-75
2022/05/14 01:03:21;;;;;;;7.37;3.30;;;12.20;99.90;;;;;;4900323;29;20235;-73
2022/05/14 01:06:08;;;;;;;7.77;3.23;;;12.20;99.90;;;;;;4907781;29;20190;-74
2022/05/14 01:08:52;;;;;;;8.93;4.23;;;12.20;99.90;;;;;;4910412;29;20219;-74
2022/05/14 01:11:39;;;;;;;9.10;3.67;;;12.20;99.90;;;;;;4914840;29;20190;-74
2022/05/14 01:14:23;;;;;;;8.93;3.70;;;12.20;99.90;;;;;;4901668;29;20311;-74
2022/05/14 01:17:08;;;;;;;9.03;3.73;;;12.30;99.90;;;;;;4911020;29;20260;-74
2022/05/14 01:19:52;;;;;;;7.23;3.80;;;12.30;99.90;;;;;;4906326;29;20248;-74
2022/05/14 01:22:55;;;;;;;9.73;3.80;;;12.20;99.90;;;;;;4904036;29;20207;-74
2022/05/14 01:26:30;;;;;;;7.47;4.00;;;12.20;99.90;;;;;;4904537;29;20187;-73
2022/05/14 01:29:21;;;;;;;10.33;3.67;;;12.30;99.90;;;;;;4902969;29;20198;-75
2022/05/14 01:32:05;;;;;;;8.13;3.20;;;12.30;99.90;;;;;;4925120;29;20254;-75
2022/05/14 01:34:50;;;;;;;6.43;3.80;;;12.20;99.90;;;;;;4918711;29;20222;-74
2022/05/14 01:37:36;;;;;;;8.13;3.57;;;12.30;99.90;;;;;;4897744;29;20227;-74
2022/05/14 01:40:20;;;;;;;6.97;3.20;;;12.30;99.90;;;;;;4900159;29;20191;-74
2022/05/14 01:43:05;;;;;;;8.37;3.80;;;12.30;99.90;;;;;;4909431;29;20684;-75
2022/05/14 01:45:49;;;;;;;10.10;3.80;;;12.30;99.90;;;;;;4910046;29;20225;-75
2022/05/14 01:48:33;;;;;;;9.77;3.63;;;12.20;99.90;;;;;;4901837;29;20222;-74
2022/05/14 01:51:18;;;;;;;8.13;3.03;;;12.30;99.90;;;;;;4912962;29;20190;-75
2022/05/14 01:54:03;;;;;;;6.80;2.80;;;12.30;99.90;;;;;;4899934;29;20227;-74
2022/05/14 01:56:47;;;;;;;8.57;3.30;;;12.30;99.90;;;;;;4904036;29;20182;-75
2022/05/14 01:59:31;;;;;;;6.83;3.00;;;12.30;99.90;;;;;;4907041;29;20242;-75
2022/05/14 02:02:16;;;;;;;7.27;3.20;;;12.30;99.90;;;;;;4906833;29;20264;-75
2022/05/14 02:05:00;;;;;;;8.73;2.87;;;12.30;99.90;;;;;;4907489;29;20279;-75
2022/05/14 02:07:45;;;;;;;5.07;2.73;;;12.30;99.90;;;;;;4894406;29;20348;-75
2022/05/14 02:10:29;;;;;;;6.50;3.10;;;12.30;99.90;;;;;;4906095;29;20191;-75
2022/05/14 02:13:13;;;;;;;6.57;2.90;;;12.30;99.90;;;;;;4911857;29;20307;-74
2022/05/14 02:15:57;;;;;;;9.87;3.47;;;12.20;99.90;;;;;;4902887;29;20213;-74
2022/05/14 02:18:43;;;;;;;7.87;3.53;;;12.20;99.90;;;;;;4904283;29;20269;-77
2022/05/14 02:21:28;;;;;;;9.40;3.20;;;12.20;99.90;;;;;;4895129;29;20549;-76
2022/05/14 02:24:13;;;;;;;9.27;3.30;;;12.20;99.90;;;;;;4916929;29;20207;-74
2022/05/14 02:26:57;;;;;;;5.90;3.10;;;12.20;99.90;;;;;;4919755;29;20215;-74
2022/05/14 02:29:56;;;;;;;7.07;3.10;;;12.20;99.90;;;;;;4902923;29;20260;-74
2022/05/14 02:32:40;;;;;;;6.50;3.23;;;12.10;99.90;;;;;;4918997;29;20232;-75
2022/05/14 02:35:24;;;;;;;6.90;3.13;;;12.10;99.90;;;;;;4902922;29;20190;-75
2022/05/14 02:38:08;;;;;;;7.87;2.80;;;12.10;99.90;;;;;;4916928;29;20240;-74
2022/05/14 02:40:53;;;;;;;7.87;2.83;;;12.10;99.90;;;;;;4905737;29;20282;-74
2022/05/14 02:43:37;;;;;;;7.30;2.57;;;12.10;99.90;;;;;;4885451;29;20638;-76
2022/05/14 02:46:21;;;;;;;8.97;3.00;;;12.10;99.90;;;;;;4908816;29;20270;-74
2022/05/14 02:49:05;;;;;;;10.33;2.80;;;12.10;99.90;;;;;;4904267;29;20195;-74
2022/05/14 02:51:49;;;;;;;8.77;3.13;;;12.10;99.90;;;;;;4899340;29;20190;-74
2022/05/14 02:54:33;;;;;;;7.23;2.97;;;12.10;99.90;;;;;;4906601;29;20219;-74
2022/05/14 02:57:18;;;;;;;6.70;2.77;;;12.10;99.90;;;;;;4910349;29;20356;-74
2022/05/14 03:00:05;;;;;;;5.83;3.50;;;12.10;99.90;;;;;;4903829;29;20279;-75
2022/05/14 03:02:50;;;;;;;8.90;3.10;;;12.10;99.90;;;;;;4903564;29;20267;-74
2022/05/14 03:05:34;;;;;;;6.77;3.23;;;12.10;99.90;;;;;;4911941;29;20236;-74
2022/05/14 03:08:18;;;;;;;8.43;3.50;;;12.10;99.90;;;;;;4902871;29;20214;-75
2022/05/14 03:11:02;;;;;;;12.13;3.93;;;12.10;99.90;;;;;;4926240;29;20194;-74
2022/05/14 03:13:46;;;;;;;7.47;3.20;;;12.10;99.90;;;;;;4912177;29;20210;-76
2022/05/14 03:16:30;;;;;;;8.40;2.90;;;12.10;99.90;;;;;;4899294;29;20186;-74
2022/05/14 03:19:16;;;;;;;8.70;3.47;;;12.10;99.90;;;;;;4906855;29;20258;-76
2022/05/14 03:22:01;;;;;;;8.63;3.40;;;12.10;99.90;;;;;;4908778;29;20256;-74
2022/05/14 03:24:45;;;;;;;9.17;3.23;;;12.10;99.90;;;;;;4899044;29;20279;-74
2022/05/14 03:27:29;;;;;;;8.87;3.10;;;12.00;99.90;;;;;;4900876;29;20310;-75
2022/05/14 03:30:13;;;;;;;6.57;3.20;;;12.00;99.90;;;;;;4885218;29;20282;-74
2022/05/14 03:32:57;;;;;;;5.23;2.90;;;12.00;99.90;;;;;;4907389;29;20206;-74
2022/05/14 03:35:41;;;;;;;8.10;2.90;;;12.00;99.90;;;;;;4908295;29;20288;-74
2022/05/14 03:38:25;;;;;;;9.20;3.30;;;11.90;99.90;;;;;;4916763;29;20209;-74
2022/05/14 03:41:09;;;;;;;9.67;3.33;;;11.90;99.90;;;;;;4909743;29;20274;-74
2022/05/14 03:43:53;;;;;;;14.37;3.40;;;11.90;99.90;;;;;;4917742;29;20219;-74
2022/05/14 03:46:37;;;;;;;7.27;2.90;;;11.90;99.90;;;;;;4905678;29;20322;-74
2022/05/14 03:49:22;;;;;;;8.30;3.03;;;11.80;99.90;;;;;;4900020;29;20794;-74
2022/05/14 03:52:06;;;;;;;6.97;3.10;;;11.80;99.90;;;;;;4907407;29;20223;-73
2022/05/14 03:54:50;;;;;;;9.83;3.27;;;11.80;99.90;;;;;;4911988;29;20268;-74
2022/05/14 03:57:34;;;;;;;4.73;2.70;;;11.80;99.90;;;;;;4905024;29;20793;-75
2022/05/14 04:00:19;;;;;;;6.97;3.00;;;11.70;99.90;;;;;;4912848;29;20334;-74
2022/05/14 04:03:04;;;;;;;9.00;3.43;;;11.70;99.90;;;;;;4912728;29;20203;-74
2022/05/14 04:05:48;;;;;;;8.73;3.43;;;11.70;99.90;;;;;;4924935;29;20260;-75
2022/05/14 04:08:33;;;;;;;7.97;2.90;;;11.70;99.90;;;;;;4927200;29;20267;-75
2022/05/14 04:11:17;;;;;;;8.63;3.43;;;11.70;99.90;;;;;;4901923;29;20202;-74
2022/05/14 04:14:02;;;;;;;9.47;3.20;;;11.70;99.90;;;;;;4918468;29;20230;-74
2022/05/14 04:16:46;;;;;;;6.00;3.50;;;11.70;99.90;;;;;;4906867;29;20191;-75
2022/05/14 04:19:30;;;;;;;8.03;3.47;;;11.70;99.90;;;;;;4915988;29;20311;-74
2022/05/14 04:22:14;;;;;;;7.97;3.40;;;11.60;99.90;;;;;;4911531;29;20203;-74
2022/05/14 04:24:58;;;;;;;6.13;3.40;;;11.60;99.90;;;;;;4904756;29;20280;-74
2022/05/14 04:27:44;;;;;;;7.20;3.30;;;11.60;99.90;;;;;;4908264;29;20274;-74
2022/05/14 04:30:29;;;;;;;11.73;2.77;;;11.60;99.90;;;;;;4894952;29;20200;-74
2022/05/14 04:33:14;;;;;;;9.23;3.83;;;11.60;99.90;;;;;;4915248;29;20218;-74
2022/05/14 04:35:58;;;;;;;7.83;3.33;;;11.60;99.90;;;;;;4907059;29;20819;-74
2022/05/14 04:38:42;;;;;;;10.90;3.63;;;11.60;99.90;;;;;;4911612;29;20301;-75
2022/05/14 04:41:30;;;;;;;7.07;3.57;;;11.60;99.90;;;;;;4908070;29;20207;-75
2022/05/14 04:44:14;;;;;;;8.50;3.20;;;11.60;99.90;;;;;;4903420;29;20238;-74
2022/05/14 04:47:00;;;;;;;9.27;2.97;;;11.60;99.90;;;;;;4908965;29;20282;-74
2022/05/14 04:49:47;;;;;;;9.93;3.73;;;11.60;99.90;;;;;;4908106;29;20235;-75
2022/05/14 04:52:31;;;;;;;9.90;3.73;;;11.60;99.90;;;;;;4923661;29;20717;-74
2022/05/14 04:55:16;;;;;;;4.10;3.30;;;11.60;99.90;;;;;;4902522;29;20726;-75
2022/05/14 04:58:00;;;;;;;12.60;4.00;;;11.60;99.90;;;;;;4906331;29;20329;-75
2022/05/14 05:00:44;;;;;;;7.23;3.73;;;11.70;99.90;;;;;;4896372;29;20355;-75
2022/05/14 05:03:29;;;;;;;13.77;3.70;;;11.70;99.90;;;;;;4906732;29;20244;-76
2022/05/14 05:06:14;;;;;;;11.57;4.37;;;11.70;99.90;;;;;;4908578;29;20235;-74
2022/05/14 05:08:59;;;;;;;17.53;4.03;;;11.80;99.90;;;;;;4918951;29;20195;-74
2022/05/14 05:11:43;;;;;;;7.87;3.13;;;11.80;99.90;;;;;;4913067;29;20191;-75
2022/05/14 05:14:28;;;;;;;14.37;4.30;;;11.90;99.90;;;;;;4896868;29;20314;-75
2022/05/14 05:17:12;;;;;;;10.23;3.57;;;11.90;99.90;;;;;;4916161;29;20557;-74
2022/05/14 05:19:56;;;;;;;10.83;3.70;;;12.00;99.90;;;;;;4910991;29;20188;-75
2022/05/14 05:22:40;;;;;;;8.17;3.37;;;12.00;99.90;;;;;;4888418;29;20244;-75
2022/05/14 05:25:24;;;;;;;15.87;4.40;;;12.10;99.90;;;;;;4895731;29;20252;-76
2022/05/14 05:28:09;;;;;;;13.17;3.97;;;12.10;99.90;;;;;;4901729;29;20227;-75
2022/05/14 05:30:54;;;;;;;9.70;3.80;;;12.10;99.90;;;;;;4914810;29;20191;-75
2022/05/14 05:33:39;;;;;;;10.67;4.10;;;12.10;99.90;;;;;;4904636;29;20621;-75
2022/05/14 05:36:23;;;;;;;14.20;3.73;;;12.10;99.90;;;;;;4910142;29;20238;-76
2022/05/14 05:39:07;;;;;;;9.30;3.77;;;12.20;99.90;;;;;;4905080;29;20199;-75
2022/05/14 05:41:51;;;;;;;11.63;3.83;;;12.30;99.90;;;;;;4909672;29;20197;-75
2022/05/14 05:44:35;;;;;;;10.87;3.70;;;12.30;99.90;;;;;;4931207;29;20288;-75
2022/05/14 05:47:19;;;;;;;13.27;4.40;;;12.30;99.90;;;;;;4906055;29;20319;-75
2022/05/14 05:50:04;;;;;;;14.27;4.23;;;12.40;99.90;;;;;;4907003;29;20272;-74
2022/05/14 05:52:50;;;;;;;10.90;3.70;;;12.50;99.90;;;;;;4914912;29;20200;-74
2022/05/14 05:58:37;;;;;;;10.87;4.60;;;12.50;99.90;;;;;;4906255;29;20234;-74
2022/05/14 06:01:21;;;;;;;13.60;4.20;;;12.60;99.90;;;;;;4903832;29;20202;-74
2022/05/14 06:04:05;;;;;;;8.50;4.20;;;12.60;99.90;;;;;;4892869;29;20252;-75
2022/05/14 06:06:50;;;;;;;18.10;4.87;;;12.70;99.90;;;;;;4916321;29;20348;-73
2022/05/14 06:09:35;;;;;;;18.60;5.00;;;12.70;99.90;;;;;;4925572;29;20203;-74
2022/05/14 06:12:20;;;;;;;11.47;4.67;;;12.80;99.90;;;;;;4907207;29;20207;-73
2022/05/14 06:15:17;;;;;;;14.57;4.93;;;12.90;99.90;;;;;;4896651;29;20211;-75
2022/05/14 06:18:05;;;;;;;18.30;4.70;;;13.00;99.90;;;;;;4898245;29;20228;-74
2022/05/14 06:20:49;;;;;;;9.23;4.50;;;13.00;99.90;;;;;;4915231;29;20195;-74
2022/05/14 06:23:33;;;;;;;15.33;4.60;;;13.10;99.90;;;;;;4896219;29;20247;-73
2022/05/14 06:26:18;;;;;;;17.57;4.53;;;13.10;99.90;;;;;;4919273;29;20194;-74
2022/05/14 06:29:02;;;;;;;11.70;5.07;;;13.20;99.90;;;;;;4906668;29;20242;-74
2022/05/14 06:31:46;;;;;;;19.83;5.00;;;13.20;99.90;;;;;;4906388;29;20187;-73
2022/05/14 06:34:30;;;;;;;12.53;4.73;;;13.30;99.90;;;;;;4917691;29;20214;-74
2022/05/14 06:37:14;;;;;;;17.87;5.70;;;13.40;99.90;;;;;;4912460;29;20222;-74
2022/05/14 06:39:58;;;;;;;16.00;5.17;;;13.40;99.90;;;;;;4909971;29;20191;-75
2022/05/14 06:42:42;;;;;;;15.60;4.87;;;13.50;99.90;;;;;;4892535;29;20325;-75
2022/05/14 06:45:27;;;;;;;18.93;5.40;;;13.60;99.90;;;;;;4903543;29;20225;-75
2022/05/14 06:48:12;;;;;;;14.10;4.40;;;13.70;99.90;;;;;;4908609;29;20210;-75
2022/05/14 06:51:01;;;;;;;16.63;4.47;;;13.80;99.90;;;;;;4920252;29;20215;-75
2022/05/14 06:53:46;;;;;;;16.13;5.37;;;13.90;99.90;;;;;;4892559;29;20215;-75
2022/05/14 06:56:32;;;;;;;13.67;4.60;;;13.90;99.90;;;;;;4920856;29;20211;-76
2022/05/14 06:59:16;;;;;;;13.50;5.67;;;14.00;99.90;;;;;;4912835;29;20242;-75
2022/05/14 07:02:01;;;;;;;16.90;4.77;;;14.20;99.90;;;;;;4907443;29;20331;-73
2022/05/14 07:07:49;;;;;;;13.83;4.80;;;14.30;99.90;;;;;;4916841;29;20289;-75
2022/05/14 07:10:33;;;;;;;13.30;4.63;;;14.30;99.90;;;;;;4908383;29;20191;-75
2022/05/14 07:13:17;;;;;;;16.10;4.73;;;14.30;99.90;;;;;;4902425;29;20698;-73
2022/05/14 07:16:02;;;;;;;14.93;3.90;;;14.40;99.90;;;;;;4895468;29;20221;-75
2022/05/14 07:18:46;;;;;;;18.07;4.97;;;14.50;99.90;;;;;;4904673;29;20219;-74
2022/05/14 07:21:30;;;;;;;13.10;4.33;;;14.50;99.90;;;;;;4904481;29;20194;-75
2022/05/14 07:24:28;;;;;;;11.13;4.53;;;14.60;99.90;;;;;;4911080;29;20206;-75
2022/05/14 07:27:13;;;;;;;17.67;5.00;;;14.70;99.90;;;;;;4898257;29;20256;-75
2022/05/14 07:29:58;;;;;;;17.33;5.40;;;14.80;99.90;;;;;;4900339;29;20207;-75
2022/05/14 07:32:42;;;;;;;16.47;5.00;;;14.80;99.90;;;;;;4908673;29;20252;-75
2022/05/14 07:35:27;;;;;;;17.07;4.83;;;14.90;99.90;;;;;;4895329;29;20278;-76
2022/05/14 07:38:11;;;;;;;16.77;5.63;;;15.00;99.90;;;;;;4911137;29;20267;-76
2022/05/14 07:40:55;;;;;;;19.47;4.90;;;15.00;99.90;;;;;;4894827;29;20208;-77
2022/05/14 07:43:42;;;;;;;13.70;4.53;;;15.10;99.90;;;;;;4906421;29;20258;-74
2022/05/14 07:46:31;;;;;;;15.23;4.97;;;15.20;99.90;;;;;;4905185;29;20211;-76
2022/05/14 07:49:17;;;;;;;18.73;4.70;;;15.40;99.90;;;;;;4897932;29;20195;-76
2022/05/14 07:52:02;;;;;;;15.80;4.60;;;15.40;99.90;;;;;;4890562;29;20255;-77
2022/05/14 07:54:46;;;;;;;14.93;4.33;;;15.40;99.90;;;;;;4898656;29;20302;-76
2022/05/14 07:57:30;;;;;;;18.17;5.33;;;15.40;99.90;;;;;;4891877;29;20268;-76
2022/05/14 08:00:15;;;;;;;17.70;4.10;;;15.40;99.90;;;;;;4899107;29;20272;-76
2022/05/14 08:03:01;;;;;;;14.17;4.27;;;15.40;99.90;;;;;;4885258;29;20196;-77
2022/05/14 08:05:45;;;;;;;13.63;4.20;;;15.50;99.90;;;;;;4907821;29;20194;-76
2022/05/14 08:08:29;;;;;;;15.10;4.30;;;15.60;99.90;;;;;;4886764;29;20585;-76
2022/05/14 08:11:13;;;;;;;15.57;4.73;;;15.70;99.90;;;;;;4898763;29;20196;-75
2022/05/14 08:13:58;;;;;;;20.03;5.70;;;15.80;99.90;;;;;;4906236;29;20259;-76
2022/05/14 08:16:43;;;;;;;16.47;4.23;;;15.80;99.90;;;;;;4898807;29;20712;-77
2022/05/14 08:19:27;;;;;;;15.13;3.70;;;15.90;99.90;;;;;;4904964;29;20247;-77
2022/05/14 08:25:14;;;;;;;14.10;3.43;;;16.10;99.90;;;;;;4919838;29;20267;-76
2022/05/14 08:27:59;;;;;;;13.23;3.70;;;16.20;99.90;;;;;;4889645;29;20218;-79
2022/05/14 08:30:43;;;;;;;13.83;3.77;;;16.20;99.90;;;;;;4903740;29;20194;-78
2022/05/14 08:33:28;;;;;;;15.73;3.80;;;16.20;99.90;;;;;;4902526;29;20237;-77
2022/05/14 08:36:12;;;;;;;14.93;4.77;;;16.20;99.90;;;;;;4913934;29;20191;-80
2022/05/14 08:38:56;;;;;;;10.83;3.67;;;16.30;99.90;;;;;;4901677;29;20223;-80
2022/05/14 08:41:43;;;;;;;11.97;3.00;;;16.40;99.90;;;;;;4908525;29;20261;-77
2022/05/14 08:44:32;;;;;;;12.83;3.87;;;16.50;99.90;;;;;;4915089;29;20206;-78
2022/05/14 08:47:34;;;;;;;9.73;3.23;;;16.60;99.90;;;;;;4914807;29;20219;-77
2022/05/14 08:50:19;;;;;;;12.23;3.40;;;16.70;99.90;;;;;;4919199;29;20220;-79
2022/05/14 08:53:06;;;;;;;9.63;3.17;;;16.70;99.90;;;;;;4903288;29;20215;-75
2022/05/14 08:56:18;;;;;;;11.83;3.53;;;16.70;99.90;;;;;;4912356;29;20204;-76
2022/05/14 08:59:33;;;;;;;15.00;3.53;;;16.80;99.90;;;;;;4913041;29;20191;-78
2022/05/14 09:02:34;;;;;;;12.30;3.03;;;16.90;99.90;;;;;;4912422;29;20190;-75
2022/05/14 09:05:34;;;;;;;11.40;3.37;;;17.00;99.90;;;;;;4906400;29;20201;-75
2022/05/14 09:08:18;;;;;;;10.40;3.13;;;17.10;99.90;;;;;;4910034;29;20266;-76
2022/05/14 09:11:11;;;;;;;11.27;2.97;;;17.20;99.90;;;;;;4917140;29;20206;-75
2022/05/14 09:13:58;;;;;;;13.87;3.40;;;17.30;99.90;;;;;;4916766;29;20230;-75
2022/05/14 09:16:42;;;;;;;14.27;3.90;;;17.20;99.90;;;;;;4905995;29;20186;-76
2022/05/14 09:19:33;;;;;;;14.67;3.30;;;17.20;99.90;;;;;;4903896;29;20244;-76
2022/05/14 09:22:36;;;;;;;14.35;4.00;;;17.20;99.90;;;;;;4904158;29;20474;-76
2022/05/14 09:25:26;;;;;;;16.60;4.28;;;17.30;99.90;;;;;;4896583;29;20552;-75
2022/05/14 09:28:23;;;;;;;13.17;3.40;;;17.50;99.90;;;;;;4895692;29;20227;-76
2022/05/14 09:31:08;;;;;;;12.55;3.80;;;17.60;99.90;;;;;;4910784;29;20773;-77
2022/05/14 09:34:05;;;;;;;8.43;3.13;;;17.70;99.90;;;;;;4906357;29;20227;-74
2022/05/14 09:36:51;;;;;;;10.70;3.10;;;17.70;99.90;;;;;;4897976;29;20202;-74
2022/05/14 09:39:36;;;;;;;12.70;2.97;;;17.80;99.90;;;;;;4902658;29;20202;-75
2022/05/14 09:42:32;;;;;;;12.73;3.23;;;17.80;99.90;;;;;;4914453;29;20271;-77
2022/05/14 09:45:22;;;;;;;12.43;3.23;;;17.90;99.90;;;;;;4901289;29;20298;-73
2022/05/14 09:48:33;;;;;;;11.70;3.50;;;18.10;99.90;;;;;;4899577;29;20218;-74
2022/05/14 09:51:40;;;;;;;12.30;2.90;;;18.20;99.90;;;;;;4894580;29;20203;-74
2022/05/14 09:54:45;;;;;;;12.47;3.90;;;18.20;99.90;;;;;;4887375;29;20229;-72
2022/05/14 09:58:00;;;;;;;23.23;3.60;;;18.30;99.90;;;;;;4897753;29;20226;-73
2022/05/14 10:01:10;;;;;;;11.27;2.90;;;18.40;99.90;;;;;;4899214;29;20191;-72
2022/05/14 10:04:06;;;;;;;12.77;3.27;;;18.40;99.90;;;;;;4904562;29;20210;-73
2022/05/14 10:07:17;;;;;;;11.60;3.17;;;18.40;99.90;;;;;;4911672;29;20260;-73
2022/05/14 10:10:09;;;;;;;11.23;3.00;;;18.40;99.90;;;;;;4909212;29;20246;-73
2022/05/14 10:13:09;;;;;;;11.23;3.00;;;18.50;99.90;;;;;;4902672;29;20299;-74
2022/05/14 10:16:15;;;;;;;9.97;3.00;;;18.50;99.90;;;;;;4905153;29;20306;-73
2022/05/14 10:18:59;;;;;;;10.80;3.20;;;18.70;99.90;;;;;;4902146;29;20199;-74
2022/05/14 10:22:00;;;;;;;9.87;2.43;;;18.80;99.90;;;;;;4899414;29;20226;-74
2022/05/14 10:28:19;;;;;;;13.33;3.30;;;19.00;99.90;;;;;;4914241;29;20222;-72
2022/05/14 10:31:08;;;;;;;12.13;2.90;;;19.00;99.90;;;;;;4915658;29;20198;-74
2022/05/14 10:33:56;;;;;;;11.73;3.23;;;19.10;99.90;;;;;;4911882;29;20238;-73
2022/05/14 10:36:45;;;;;;;12.23;3.00;;;19.20;99.90;;;;;;4920773;29;20226;-74
2022/05/14 10:39:40;;;;;;;14.77;3.42;;;19.20;99.90;;;;;;4924608;29;20202;-73
2022/05/14 10:42:59;;;;;;;8.95;2.53;;;19.30;99.90;;;;;;4903940;29;20203;-73
2022/05/14 10:45:49;;;;;;;11.63;2.67;;;19.40;99.90;;;;;;4889578;29;20578;-73
2022/05/14 10:48:56;;;;;;;14.65;3.28;;;19.50;99.90;;;;;;4903877;29;20582;-74
2022/05/14 10:51:50;;;;;;;15.07;3.20;;;19.40;99.90;;;;;;4897831;29;20289;-73
2022/05/14 10:54:34;;;;;;;10.40;3.07;;;19.40;99.90;;;;;;4897028;29;20226;-74
2022/05/14 10:57:18;;;;;;;11.17;3.13;;;19.40;99.90;;;;;;4903347;29;20215;-73
2022/05/14 11:00:11;;;;;;;11.93;3.30;;;19.40;99.90;;;;;;4910421;29;20194;-73
2022/05/14 11:03:04;;;;;;;16.85;3.22;;;19.30;99.90;;;;;;4914018;29;20206;-74
2022/05/14 11:06:05;;;;;;;11.50;2.63;;;19.30;99.90;;;;;;4902723;29;20183;-73
2022/05/14 11:08:50;;;;;;;11.38;3.38;;;19.20;99.90;;;;;;4915622;29;20213;-73
2022/05/14 11:11:34;;;;;;;8.30;2.70;;;19.20;99.90;;;;;;4899157;29;20268;-74
2022/05/14 11:14:18;;;;;;;9.50;3.03;;;19.30;99.90;;;;;;4897724;29;20611;-73
2022/05/14 11:17:02;;;;;;;8.00;2.83;;;19.40;99.90;;;;;;4920455;29;20357;-73
2022/05/14 11:19:47;;;;;;;8.45;2.53;;;19.50;99.90;;;;;;4891926;29;20263;-74
2022/05/14 11:22:33;;;;;;;10.57;3.20;;;19.50;99.90;;;;;;4903484;29;20192;-74
2022/05/14 11:25:20;;;;;;;12.02;3.10;;;19.50;99.90;;;;;;4905570;29;20198;-74
2022/05/14 11:28:17;;;;;;;11.25;3.10;;;19.60;99.90;;;;;;4903522;29;20229;-74
2022/05/14 11:31:16;;;;;;;11.82;3.35;;;19.70;99.90;;;;;;4891268;29;20220;-73
2022/05/14 11:34:13;;;;;;;11.27;3.08;;;19.80;99.90;;;;;;4899268;29;20277;-74
2022/05/14 11:37:00;;;;;;;6.88;2.80;;;19.80;99.90;;;;;;4903788;29;20223;-73
2022/05/14 11:39:44;;;;;;;8.80;2.70;;;19.80;99.90;;;;;;4913979;29;20227;-74
2022/05/14 11:42:30;;;;;;;12.40;3.72;;;19.90;99.90;;;;;;4897612;29;20202;-74
2022/05/14 11:45:21;;;;;;;13.40;3.17;;;19.90;99.90;;;;;;4912538;29;20234;-74
2022/05/14 11:48:18;;;;;;;14.00;3.25;;;20.00;99.90;;;;;;4902657;29;20207;-74
2022/05/14 11:51:31;;;;;;;8.13;2.72;;;20.10;99.90;;;;;;4903656;29;20727;-74
2022/05/14 11:54:28;;;;;;;9.88;3.17;;;20.30;99.90;;;;;;4916704;29;20558;-74
2022/05/14 11:57:14;;;;;;;11.30;3.08;;;20.40;99.90;;;;;;4894766;29;20693;-74
2022/05/14 12:00:19;;;;;;;15.63;3.50;;;20.30;99.90;;;;;;4905067;29;20258;-74
2022/05/14 12:03:28;;;;;;;14.82;3.25;;;20.30;99.90;;;;;;4902386;29;20187;-74
2022/05/14 12:06:43;;;;;;;12.18;3.63;;;20.30;99.90;;;;;;4900928;29;20199;-74
2022/05/14 12:09:50;;;;;;;9.10;2.47;;;20.20;99.90;;;;;;4908327;29;20189;-74
2022/05/14 12:12:46;;;;;;;10.05;2.90;;;20.20;99.90;;;;;;4907952;29;20681;-74
2022/05/14 12:15:31;;;;;;;9.43;2.88;;;20.10;99.90;;;;;;4916858;29;20255;-74
2022/05/14 12:18:15;;;;;;;9.35;2.85;;;20.10;99.90;;;;;;4908182;29;20286;-74
2022/05/14 12:21:06;;;;;;;9.25;3.08;;;20.20;99.90;;;;;;4900249;29;20275;-74
2022/05/14 12:23:51;;;;;;;11.75;3.05;;;20.30;99.90;;;;;;4908210;29;20183;-74
2022/05/14 12:26:36;;;;;;;12.30;3.10;;;20.40;99.90;;;;;;4922200;29;20222;-74
2022/05/14 12:29:32;;;;;;;17.48;3.90;;;20.40;99.90;;;;;;4903907;29;20422;-74
2022/05/14 12:35:22;;;;;;;8.73;2.53;;;20.50;99.90;;;;;;4916666;29;20214;-74
2022/05/14 12:38:11;;;;;;;11.32;3.30;;;20.60;99.90;;;;;;4911294;29;20287;-73
2022/05/14 12:40:56;;;;;;;12.23;3.00;;;20.70;99.90;;;;;;4903812;29;20215;-74
2022/05/14 12:43:43;;;;;;;12.93;3.60;;;20.70;99.90;;;;;;4913871;29;20195;-74
2022/05/14 12:46:27;;;;;;;17.13;3.20;;;20.70;99.90;;;;;;4907917;29;20219;-73
2022/05/14 12:49:19;;;;;;;13.15;3.20;;;20.70;99.90;;;;;;4906377;29;20626;-74
2022/05/14 12:52:25;;;;;;;9.27;3.05;;;20.70;99.90;;;;;;4922385;29;20247;-74
2022/05/14 12:55:14;;;;;;;9.70;3.05;;;20.60;99.90;;;;;;4916479;29;20211;-73
2022/05/14 12:58:01;;;;;;;11.30;2.80;;;20.60;99.90;;;;;;4906657;29;20231;-73
2022/05/14 13:00:49;;;;;;;9.80;2.78;;;20.60;99.90;;;;;;4902015;29;20186;-73
2022/05/14 13:03:43;;;;;;;11.00;3.05;;;20.60;99.90;;;;;;4908107;29;20196;-73
2022/05/14 13:06:34;;;;;;;13.13;3.72;;;20.50;99.90;;;;;;4919603;29;20231;-73
2022/05/14 13:09:23;;;;;;;11.25;3.47;;;20.50;99.90;;;;;;4902637;29;20243;-73
2022/05/14 13:12:15;;;;;;;10.43;3.10;;;20.50;99.90;;;;;;4917422;29;20240;-73
2022/05/14 13:15:03;;;;;;;11.52;3.28;;;20.50;99.90;;;;;;4901574;29;20263;-73
2022/05/14 13:17:47;;;;;;;10.55;2.70;;;20.60;99.90;;;;;;4892749;29;20219;-73
2022/05/14 13:20:31;;;;;;;12.38;3.97;;;20.50;99.90;;;;;;4894963;29;20196;-73
2022/05/14 13:23:21;;;;;;;13.75;3.67;;;20.50;99.90;;;;;;4896486;29;20227;-73
2022/05/14 13:26:24;;;;;;;11.82;4.10;;;20.40;99.90;;;;;;4898080;29;20223;-73
2022/05/14 13:29:14;;;;;;;15.52;3.88;;;20.40;99.90;;;;;;4901897;29;20199;-74
2022/05/14 13:32:21;;;;;;;11.75;3.63;;;20.50;99.90;;;;;;4901301;29;20194;-73
2022/05/14 13:38:20;;;;;;;10.70;3.50;;;20.50;99.90;;;;;;4918084;29;20226;-72
2022/05/14 13:41:16;;;;;;;10.32;3.60;;;20.50;99.90;;;;;;4895803;29;20239;-74
2022/05/14 13:44:02;;;;;;;11.55;3.35;;;20.40;99.90;;;;;;4899159;29;20323;-73
2022/05/14 13:46:54;;;;;;;13.10;3.40;;;20.50;99.90;;;;;;4899494;29;20254;-73
2022/05/14 13:49:41;;;;;;;18.45;3.67;;;20.50;99.90;;;;;;4902140;29;20280;-74
2022/05/14 13:52:28;;;;;;;15.13;3.88;;;20.50;99.90;;;;;;4893260;29;20206;-73
2022/05/14 13:55:26;;;;;;;11.48;3.88;;;20.60;99.90;;;;;;4900977;29;20290;-73
2022/05/14 13:58:17;;;;;;;14.45;3.10;;;20.60;99.90;;;;;;4910323;29;20222;-73
2022/05/14 14:01:09;;;;;;;15.50;3.50;;;20.60;99.90;;;;;;4897294;29;20204;-73
2022/05/14 14:03:56;;;;;;;13.73;3.53;;;20.70;99.90;;;;;;4907718;29;20208;-73
2022/05/14 14:06:40;;;;;;;14.45;3.67;;;20.80;99.90;;;;;;4897283;29;20195;-74
2022/05/14 14:09:24;;;;;;;14.25;3.97;;;20.80;99.90;;;;;;4922141;29;20194;-73
2022/05/14 14:12:10;;;;;;;13.35;3.78;;;20.80;99.90;;;;;;4928413;29;20266;-73
2022/05/14 14:14:54;;;;;;;14.75;4.15;;;20.80;99.90;;;;;;4908236;29;20256;-74
2022/05/14 14:17:38;;;;;;;13.52;3.72;;;20.90;99.90;;;;;;4895666;29;20215;-74
2022/05/14 14:20:24;;;;;;;11.45;4.15;;;20.80;99.90;;;;;;4905214;29;20199;-74
2022/05/14 14:23:13;;;;;;;12.80;3.70;;;20.80;99.90;;;;;;4916561;29;20244;-73
2022/05/14 14:26:00;;;;;;;10.25;3.33;;;20.80;99.90;;;;;;4908995;29;20216;-73
2022/05/14 14:28:48;;;;;;;16.45;3.63;;;20.80;99.90;;;;;;4910951;29;20267;-74
2022/05/14 14:31:32;;;;;;;9.57;2.83;;;20.80;99.90;;;;;;4898931;29;20200;-74
2022/05/14 14:34:16;;;;;;;9.20;3.15;;;20.70;99.90;;;;;;4912423;29;20217;-74
2022/05/14 14:37:01;;;;;;;12.13;3.55;;;20.60;99.90;;;;;;4911703;29;20207;-74
2022/05/14 14:39:45;;;;;;;14.85;3.80;;;20.60;99.90;;;;;;4912264;29;20202;-74
2022/05/14 14:42:29;;;;;;;11.63;3.42;;;20.70;99.90;;;;;;4905789;29;20256;-73
2022/05/14 14:45:13;;;;;;;11.40;3.25;;;20.70;99.90;;;;;;4906466;29;20256;-73
2022/05/14 14:47:58;;;;;;;13.95;3.30;;;20.70;99.90;;;;;;4898943;29;20627;-73
2022/05/14 14:50:42;;;;;;;15.05;3.55;;;20.60;99.90;;;;;;4903403;29;20191;-72